Time;durP1;ratioP1;P1;durP2;ratioP2;P2;SDS_P1;SDS_P2;PMS_P1;PMS_P2;Temp;Humidity;BMP_temperature;BMP_pressure;BME280_temperature;BME280_humidity;BME280_pressure;Samples;Min_cycle;Max_cycle;Signal;HPM_P1;HPM_P2
2022/05/28 00:00:59;;;;;;;8.55;1.90;;;10.80;99.90;;;;;;4907593;28;20151;-54
2022/05/28 00:03:27;;;;;;;10.27;2.47;;;10.90;99.90;;;;;;4902887;29;20103;-57
2022/05/28 00:05:53;;;;;;;7.68;1.80;;;11.00;99.90;;;;;;4903287;28;20076;-57
2022/05/28 00:08:19;;;;;;;9.07;1.83;;;11.00;99.90;;;;;;4907327;29;20067;-55
2022/05/28 00:10:47;;;;;;;10.85;2.17;;;11.10;99.90;;;;;;4906535;28;21348;-54
2022/05/28 00:13:12;;;;;;;;;;;11.10;99.90;;;;;;4899862;28;20040;-54
2022/05/28 00:15:41;;;;;;;9.75;1.73;;;11.20;99.90;;;;;;4913426;28;20258;-53
2022/05/28 00:18:07;;;;;;;7.78;2.20;;;11.20;99.90;;;;;;4902406;29;20048;-55
2022/05/28 00:20:33;;;;;;;7.00;1.60;;;11.30;99.90;;;;;;4902599;28;20051;-57
2022/05/28 00:22:58;;;;;;;8.07;2.05;;;11.30;99.90;;;;;;4905624;28;20048;-51
2022/05/28 00:25:24;;;;;;;8.80;2.15;;;11.30;99.90;;;;;;4904292;28;20493;-52
2022/05/28 00:27:50;;;;;;;7.07;1.60;;;11.30;99.90;;;;;;4903592;29;20048;-57
2022/05/28 00:30:16;;;;;;;6.80;1.50;;;11.40;99.90;;;;;;4905307;28;20494;-52
2022/05/28 00:32:42;;;;;;;8.77;1.95;;;11.40;99.90;;;;;;4904122;28;20044;-55
2022/05/28 00:35:13;;;;;;;9.30;2.00;;;11.50;99.90;;;;;;4904161;28;20126;-56
2022/05/28 00:37:38;;;;;;;9.27;1.95;;;11.50;99.90;;;;;;4905790;29;20036;-54
2022/05/28 00:40:08;;;;;;;7.32;1.30;;;11.40;99.90;;;;;;4907980;28;20506;-53
2022/05/28 00:42:33;;;;;;;3.28;0.80;;;11.00;99.90;;;;;;4904849;29;20380;-54
2022/05/28 00:44:59;;;;;;;3.45;0.75;;;10.50;99.90;;;;;;4905125;29;20046;-54
2022/05/28 00:47:25;;;;;;;3.22;0.80;;;10.30;99.90;;;;;;4903274;28;20226;-55
2022/05/28 00:49:51;;;;;;;3.47;0.82;;;10.20;99.90;;;;;;4903778;28;20084;-55
2022/05/28 00:52:20;;;;;;;2.92;0.70;;;10.10;99.90;;;;;;4903169;28;20186;-54
2022/05/28 00:54:48;;;;;;;5.32;1.25;;;10.00;99.90;;;;;;4905213;28;20055;-51
2022/05/28 00:57:16;;;;;;;4.05;1.02;;;10.00;99.90;;;;;;4903148;28;20044;-56
2022/05/28 00:59:43;;;;;;;3.10;0.70;;;10.00;99.90;;;;;;4903559;28;20052;-54
2022/05/28 01:02:29;;;;;;;4.50;0.88;;;9.90;99.90;;;;;;4901680;28;20048;-51
2022/05/28 01:05:01;;;;;;;6.43;1.20;;;9.90;99.90;;;;;;4904814;28;20036;-54
2022/05/28 01:07:42;;;;;;;4.65;1.17;;;9.90;99.90;;;;;;4904147;29;20063;-53
2022/05/28 01:10:21;;;;;;;5.85;1.55;;;9.90;99.90;;;;;;4903738;28;20098;-56
2022/05/28 01:12:58;;;;;;;5.30;1.23;;;9.90;99.90;;;;;;4902094;28;20698;-56
2022/05/28 01:15:30;;;;;;;9.93;1.27;;;;;;;;;;4904466;28;20047;-54
2022/05/28 01:18:11;;;;;;;9.30;1.70;;;10.00;99.90;;;;;;4902483;28;20052;-55
2022/05/28 01:20:56;;;;;;;8.02;1.58;;;10.10;99.90;;;;;;4902578;28;20040;-57
2022/05/28 01:23:31;;;;;;;6.88;1.63;;;10.00;99.90;;;;;;4901725;28;20482;-55
2022/05/28 01:26:20;;;;;;;5.20;1.27;;;10.10;99.90;;;;;;4905436;28;20059;-55
2022/05/28 01:28:52;;;;;;;4.57;1.33;;;10.10;99.90;;;;;;4905085;29;20123;-53
2022/05/28 01:31:19;;;;;;;7.15;1.58;;;10.10;99.90;;;;;;4905617;29;20094;-50
2022/05/28 01:33:45;;;;;;;5.90;1.25;;;10.00;99.90;;;;;;4902350;28;20475;-54
2022/05/28 01:36:14;;;;;;;7.22;1.70;;;9.90;99.90;;;;;;4904728;29;20528;-56
2022/05/28 01:38:42;;;;;;;5.35;1.30;;;9.90;99.90;;;;;;4900858;28;20052;-54
2022/05/28 01:41:10;;;;;;;3.72;1.00;;;9.80;99.90;;;;;;4903831;29;20071;-56
2022/05/28 01:43:38;;;;;;;7.50;1.27;;;9.70;99.90;;;;;;4900201;28;20490;-56
2022/05/28 01:46:09;;;;;;;6.00;1.48;;;9.60;99.90;;;;;;4902484;28;20128;-56
2022/05/28 01:48:37;;;;;;;4.07;1.20;;;9.60;99.90;;;;;;4884065;29;20517;-55
2022/05/28 01:51:04;;;;;;;7.68;1.35;;;9.60;99.90;;;;;;4995398;23;20366;-73
2022/05/28 01:56:15;;;;;;;5.40;1.20;;;9.40;99.90;;;;;;5024986;28;20052;-73
2022/05/28 01:58:41;;;;;;;6.25;1.30;;;9.40;99.90;;;;;;5005102;28;20327;-73
2022/05/28 02:01:08;;;;;;;8.55;1.27;;;9.30;99.90;;;;;;5025293;28;20064;-74
2022/05/28 02:03:36;;;;;;;9.20;1.60;;;9.30;99.90;;;;;;5023013;28;20547;-74
2022/05/28 02:06:02;;;;;;;;;;;9.30;99.90;;;;;;5024083;28;20090;-73
2022/05/28 02:08:35;;;;;;;4.93;1.10;;;9.30;99.90;;;;;;5018609;28;19924;-73
2022/05/28 02:11:26;;;;;;;6.47;1.50;;;9.30;99.90;;;;;;5024225;28;20561;-72
2022/05/28 02:13:58;;;;;;;9.50;1.50;;;9.20;99.90;;;;;;5023399;28;20327;-72
2022/05/28 02:16:30;;;;;;;8.55;1.70;;;9.20;99.90;;;;;;5026098;28;20053;-72
2022/05/28 02:19:01;;;;;;;7.90;1.65;;;9.20;99.90;;;;;;5030611;28;20037;-72
2022/05/28 02:21:49;;;;;;;10.50;1.60;;;9.10;99.90;;;;;;5032132;28;20045;-71
2022/05/28 02:24:24;;;;;;;6.28;1.40;;;9.00;99.90;;;;;;5039662;28;20135;-71
2022/05/28 02:27:04;;;;;;;7.50;1.30;;;9.00;99.90;;;;;;5036836;28;20065;-74
2022/05/28 02:29:32;;;;;;;7.78;1.50;;;8.90;99.90;;;;;;5029308;28;20059;-73
2022/05/28 02:31:58;;;;;;;7.53;1.48;;;8.90;99.90;;;;;;5028714;28;20041;-73
2022/05/28 02:34:23;;;;;;;8.13;1.25;;;9.00;99.90;;;;;;5026204;28;20729;-73
2022/05/28 02:36:49;;;;;;;6.82;1.40;;;9.10;99.90;;;;;;5026678;28;20088;-75
2022/05/28 02:39:15;;;;;;;7.05;1.58;;;9.10;99.90;;;;;;5029342;28;20099;-74
2022/05/28 02:41:40;;;;;;;6.53;1.67;;;9.10;99.90;;;;;;5030311;28;20033;-72
2022/05/28 02:44:06;;;;;;;6.43;1.50;;;9.00;99.90;;;;;;5027945;28;20401;-73
2022/05/28 02:46:35;;;;;;;13.27;2.33;;;9.00;99.90;;;;;;5025585;28;20129;-72
2022/05/28 02:49:01;;;;;;;8.75;1.70;;;8.90;99.90;;;;;;5028204;28;21472;-71
2022/05/28 02:51:27;;;;;;;5.70;1.85;;;8.90;99.90;;;;;;5027511;28;20053;-74
2022/05/28 02:53:54;;;;;;;10.02;1.77;;;;;;;;;;5026769;28;20385;-72
2022/05/28 02:56:21;;;;;;;10.82;1.85;;;8.80;99.90;;;;;;5029026;28;20443;-72
2022/05/28 02:58:46;;;;;;;8.48;1.70;;;8.80;99.90;;;;;;5029406;28;20440;-73
2022/05/28 03:01:23;;;;;;;9.90;1.70;;;8.80;99.90;;;;;;5026309;28;20060;-72
2022/05/28 03:03:49;;;;;;;10.63;2.13;;;8.70;99.90;;;;;;5027395;28;20496;-71
2022/05/28 03:06:15;;;;;;;10.07;1.95;;;8.70;99.90;;;;;;5025237;28;20046;-73
2022/05/28 03:08:41;;;;;;;7.03;1.77;;;8.80;99.90;;;;;;5027792;28;20037;-73
2022/05/28 03:11:06;;;;;;;8.25;1.85;;;8.70;99.90;;;;;;5025883;28;20049;-72
2022/05/28 03:13:32;;;;;;;7.80;1.98;;;8.70;99.90;;;;;;5028448;28;20068;-71
2022/05/28 03:15:57;;;;;;;8.30;1.50;;;8.70;99.90;;;;;;5008842;28;20493;-71
2022/05/28 03:18:23;;;;;;;10.10;1.83;;;8.70;99.90;;;;;;5028649;28;20045;-71
2022/05/28 03:20:48;;;;;;;9.82;1.70;;;8.70;99.90;;;;;;5028151;28;20033;-73
2022/05/28 03:23:14;;;;;;;10.63;1.95;;;8.60;99.90;;;;;;5026132;28;20049;-73
2022/05/28 03:25:39;;;;;;;8.63;1.77;;;8.60;99.90;;;;;;5028370;28;20045;-73
2022/05/28 03:28:05;;;;;;;6.82;1.80;;;8.60;99.90;;;;;;5027943;28;20045;-73
2022/05/28 03:30:30;;;;;;;7.80;2.03;;;8.50;99.90;;;;;;5026714;28;20128;-73
2022/05/28 03:32:56;;;;;;;7.65;1.70;;;8.50;99.90;;;;;;5027557;28;20042;-73
2022/05/28 03:35:21;;;;;;;10.52;2.35;;;8.50;99.90;;;;;;5025977;28;20050;-74
2022/05/28 03:37:47;;;;;;;15.38;2.13;;;8.50;99.90;;;;;;5026493;28;20065;-70
2022/05/28 03:40:13;;;;;;;9.95;2.10;;;8.50;99.90;;;;;;5033077;28;20045;-70
2022/05/28 03:42:38;;;;;;;9.07;1.83;;;8.50;99.90;;;;;;5025585;28;20087;-70
2022/05/28 03:45:04;;;;;;;8.93;1.83;;;8.60;99.90;;;;;;5028869;28;20037;-70
2022/05/28 03:47:30;;;;;;;11.20;1.70;;;8.50;99.90;;;;;;5033590;28;20053;-70
2022/05/28 03:49:56;;;;;;;10.55;1.70;;;8.50;99.90;;;;;;5035989;28;20509;-68
2022/05/28 03:52:22;;;;;;;8.30;1.60;;;8.50;99.90;;;;;;5032438;28;20425;-70
2022/05/28 03:54:48;;;;;;;11.20;2.00;;;8.60;99.90;;;;;;5027243;28;20053;-71
2022/05/28 03:57:20;;;;;;;7.82;1.88;;;8.60;99.90;;;;;;5030597;28;20048;-70
2022/05/28 03:59:46;;;;;;;8.25;1.88;;;8.60;99.90;;;;;;5031423;28;20041;-71
2022/05/28 04:02:12;;;;;;;10.25;2.10;;;8.60;99.90;;;;;;5025680;28;20048;-72
2022/05/28 04:04:38;;;;;;;10.68;1.92;;;8.70;99.90;;;;;;5026382;28;20045;-72
2022/05/28 04:07:04;;;;;;;8.23;1.80;;;8.70;99.90;;;;;;5025187;28;20121;-72
2022/05/28 04:09:29;;;;;;;11.38;2.13;;;8.70;99.90;;;;;;5026458;28;20468;-69
2022/05/28 04:11:55;;;;;;;11.27;1.83;;;8.70;99.90;;;;;;5032142;28;20042;-70
2022/05/28 04:14:21;;;;;;;8.05;1.85;;;8.80;99.90;;;;;;5032127;28;20045;-69
2022/05/28 04:16:46;;;;;;;9.48;1.77;;;8.80;99.90;;;;;;5032472;28;20037;-69
2022/05/28 04:19:12;;;;;;;10.90;1.67;;;;;;;;;;5032692;28;20041;-69
2022/05/28 04:21:38;;;;;;;7.25;1.60;;;9.00;99.90;;;;;;5031317;28;20522;-70
2022/05/28 04:24:04;;;;;;;7.22;1.73;;;9.10;99.90;;;;;;5028308;28;20072;-71
2022/05/28 04:26:30;;;;;;;11.35;2.15;;;9.10;99.90;;;;;;5021480;28;20041;-72
2022/05/28 04:28:56;;;;;;;10.55;1.90;;;9.30;99.90;;;;;;5024857;28;20721;-72
2022/05/28 04:31:21;;;;;;;12.20;1.92;;;9.30;99.90;;;;;;5024675;28;20033;-71
2022/05/28 04:33:47;;;;;;;10.77;2.10;;;9.70;99.90;;;;;;5025009;28;20044;-72
2022/05/28 04:36:13;;;;;;;9.52;2.13;;;10.60;99.90;;;;;;5024228;28;20043;-72
2022/05/28 04:38:39;;;;;;;12.95;2.28;;;11.70;99.90;;;;;;5022766;28;20155;-72
2022/05/28 04:41:04;;;;;;;10.98;2.05;;;12.20;99.90;;;;;;5021709;28;20084;-72
2022/05/28 04:43:30;;;;;;;12.52;2.05;;;12.80;99.90;;;;;;5023005;28;20046;-72
2022/05/28 04:45:56;;;;;;;7.90;1.80;;;13.70;99.90;;;;;;5026024;28;20033;-71
2022/05/28 04:48:22;;;;;;;11.07;2.40;;;;;;;;;;5024467;28;20037;-72
2022/05/28 04:50:47;;;;;;;10.82;2.05;;;13.00;99.90;;;;;;5024790;28;20129;-72
2022/05/28 04:53:13;;;;;;;10.48;1.88;;;12.80;99.90;;;;;;5023286;28;20552;-73
2022/05/28 04:55:39;;;;;;;9.57;1.75;;;12.90;99.90;;;;;;5024634;28;20468;-73
2022/05/28 04:58:06;;;;;;;9.88;1.65;;;13.40;99.90;;;;;;5008480;28;20072;-73
2022/05/28 05:00:33;;;;;;;8.10;1.65;;;12.70;99.90;;;;;;5024487;28;20481;-73
2022/05/28 05:02:59;;;;;;;10.73;2.20;;;13.50;99.90;;;;;;5024287;28;20111;-73
2022/05/28 05:05:24;;;;;;;8.50;1.98;;;14.40;99.90;;;;;;5021886;28;20300;-73
2022/05/28 05:07:50;;;;;;;13.50;2.30;;;15.10;99.90;;;;;;5021797;28;20132;-73
2022/05/28 05:10:15;;;;;;;11.50;2.83;;;16.20;99.90;;;;;;5027063;28;20052;-72
2022/05/28 05:12:41;;;;;;;9.10;1.70;;;16.80;99.90;;;;;;5022564;28;20091;-73
2022/05/28 05:15:07;;;;;;;9.88;2.40;;;17.30;99.90;;;;;;5022546;28;20527;-72
2022/05/28 05:17:33;;;;;;;9.18;1.52;;;17.90;99.90;;;;;;5022756;28;20040;-72
2022/05/28 05:19:58;;;;;;;9.80;2.17;;;18.00;99.90;;;;;;5025500;28;20183;-73
2022/05/28 05:22:24;;;;;;;9.77;2.00;;;18.40;99.90;;;;;;5028776;28;20044;-70
2022/05/28 05:24:52;;;;;;;8.23;1.75;;;18.80;99.90;;;;;;5030286;28;20136;-70
2022/05/28 05:27:17;;;;;;;8.23;1.92;;;19.00;99.90;;;;;;5028177;28;20401;-70
2022/05/28 05:29:43;;;;;;;7.25;1.52;;;19.10;99.90;;;;;;5031382;28;20037;-69
2022/05/28 05:32:09;;;;;;;8.07;1.80;;;19.00;99.90;;;;;;5032574;28;20064;-69
2022/05/28 05:34:34;;;;;;;7.63;2.17;;;19.10;99.90;;;;;;5026146;28;20056;-71
2022/05/28 05:37:00;;;;;;;8.60;1.88;;;19.30;99.90;;;;;;5024586;28;20037;-71
2022/05/28 05:39:26;;;;;;;9.63;2.08;;;19.10;99.90;;;;;;5024484;28;20076;-71
2022/05/28 05:41:53;;;;;;;9.35;2.13;;;19.20;99.90;;;;;;5025174;28;20042;-70
2022/05/28 05:44:18;;;;;;;10.30;2.63;;;19.50;99.90;;;;;;5027482;28;20084;-71
2022/05/28 05:46:44;;;;;;;9.27;2.20;;;19.70;99.90;;;;;;5027188;28;20076;-70
2022/05/28 05:49:11;;;;;;;10.13;1.92;;;20.10;99.90;;;;;;5029642;28;20042;-70
2022/05/28 05:51:46;;;;;;;10.03;2.33;;;20.30;99.50;;;;;;5033369;28;20077;-70
2022/05/28 05:54:13;;;;;;;6.80;2.00;;;20.50;99.90;;;;;;5033023;28;20093;-71
2022/05/28 05:56:39;;;;;;;9.30;2.30;;;20.70;98.50;;;;;;5034273;28;20052;-71
2022/05/28 05:59:04;;;;;;;8.68;2.15;;;20.90;99.90;;;;;;5027530;28;20041;-72
2022/05/28 06:01:30;;;;;;;8.75;2.47;;;21.00;97.40;;;;;;5026453;28;20048;-71
2022/05/28 06:03:56;;;;;;;7.55;2.00;;;21.10;95.30;;;;;;5029117;28;20069;-72
2022/05/28 06:06:21;;;;;;;10.05;2.33;;;20.70;93.30;;;;;;5028332;28;20053;-72
2022/05/28 06:08:48;;;;;;;11.40;2.22;;;;;;;;;;5029051;28;20036;-71
2022/05/28 06:11:14;;;;;;;8.45;2.38;;;17.80;99.90;;;;;;5030007;28;20045;-70
2022/05/28 06:13:39;;;;;;;7.88;1.90;;;17.50;99.90;;;;;;5050783;28;20101;-71
2022/05/28 06:16:05;;;;;;;8.60;1.80;;;15.90;99.90;;;;;;5046544;28;20133;-70
2022/05/28 06:18:32;;;;;;;11.43;2.38;;;15.50;99.90;;;;;;5036983;28;20084;-73
2022/05/28 06:20:59;;;;;;;7.72;1.92;;;15.00;99.90;;;;;;5025869;28;20058;-72
2022/05/28 06:23:26;;;;;;;8.13;1.98;;;14.20;99.90;;;;;;5027126;28;20045;-71
2022/05/28 06:25:51;;;;;;;8.98;1.75;;;14.10;99.90;;;;;;5023173;28;20053;-72
2022/05/28 06:28:17;;;;;;;10.63;1.98;;;13.50;99.90;;;;;;5025775;28;20033;-71
2022/05/28 06:30:44;;;;;;;13.65;3.10;;;13.40;99.90;;;;;;5026405;28;20067;-70
2022/05/28 06:33:11;;;;;;;10.75;2.55;;;13.40;99.90;;;;;;5026404;28;20124;-71
2022/05/28 06:35:36;;;;;;;8.15;2.05;;;13.20;99.90;;;;;;5027425;28;20041;-71
2022/05/28 06:38:02;;;;;;;10.75;2.00;;;13.20;99.90;;;;;;5034151;28;20053;-70
2022/05/28 06:40:28;;;;;;;17.52;2.33;;;13.20;99.90;;;;;;5041374;28;20239;-69
2022/05/28 06:42:56;;;;;;;7.80;1.92;;;13.30;99.90;;;;;;5030402;28;20075;-73
2022/05/28 06:45:23;;;;;;;5.95;2.05;;;13.80;99.90;;;;;;5028463;28;20215;-73
2022/05/28 06:47:49;;;;;;;9.98;2.20;;;14.70;99.90;;;;;;5021849;28;20053;-73
2022/05/28 06:53:01;;;;;;;9.35;2.67;;;16.10;99.90;;;;;;5025517;28;20457;-72
2022/05/28 06:55:27;;;;;;;10.00;2.10;;;16.10;99.90;;;;;;5029723;28;20113;-69
2022/05/28 06:57:53;;;;;;;7.53;2.45;;;15.70;99.90;;;;;;5034036;28;20523;-70
2022/05/28 07:00:19;;;;;;;10.02;2.25;;;15.30;99.90;;;;;;5034878;28;20045;-69
2022/05/28 07:02:45;;;;;;;7.63;2.03;;;14.90;99.90;;;;;;5029274;28;20037;-71
2022/05/28 07:05:12;;;;;;;9.43;2.10;;;14.90;99.90;;;;;;5033039;28;20239;-66
2022/05/28 07:07:38;;;;;;;9.90;2.17;;;15.20;99.90;;;;;;5034973;28;20053;-67
2022/05/28 07:10:05;;;;;;;7.00;1.83;;;15.50;99.90;;;;;;5038360;28;20052;-68
2022/05/28 07:12:31;;;;;;;8.10;1.67;;;15.80;99.90;;;;;;5041249;28;20068;-71
2022/05/28 07:14:56;;;;;;;6.57;1.83;;;16.50;99.90;;;;;;5032957;28;20041;-67
2022/05/28 07:17:22;;;;;;;6.50;1.70;;;17.30;99.90;;;;;;5027270;28;20048;-70
2022/05/28 07:19:49;;;;;;;5.97;1.70;;;17.50;99.90;;;;;;5038018;28;20138;-69
2022/05/28 07:22:15;;;;;;;4.57;1.55;;;17.70;99.90;;;;;;5027495;28;20041;-73
2022/05/28 07:24:41;;;;;;;6.95;1.77;;;18.10;99.90;;;;;;5029358;28;20125;-71
2022/05/28 07:27:07;;;;;;;9.20;2.22;;;18.50;99.90;;;;;;5028191;28;20037;-69
2022/05/28 07:29:35;;;;;;;10.30;1.90;;;;;;;;;;5025934;28;20401;-71
2022/05/28 07:32:00;;;;;;;13.43;2.60;;;17.60;99.90;;;;;;5028589;28;20097;-69
2022/05/28 07:34:27;;;;;;;11.05;2.13;;;;;;;;;;5029684;28;20120;-68
2022/05/28 07:36:53;;;;;;;13.50;2.38;;;16.40;99.90;;;;;;5032968;28;20511;-67
2022/05/28 07:39:18;;;;;;;9.35;2.63;;;16.00;99.90;;;;;;5030722;28;20045;-67
2022/05/28 07:41:44;;;;;;;9.77;2.30;;;15.00;99.90;;;;;;5039802;28;20045;-68
2022/05/28 07:44:10;;;;;;;15.00;3.30;;;14.70;99.90;;;;;;5034818;28;20626;-73
2022/05/28 07:46:35;;;;;;;12.18;2.20;;;14.40;99.90;;;;;;5026968;28;20103;-70
2022/05/28 07:49:04;;;;;;;10.70;2.47;;;14.00;99.90;;;;;;5029848;28;20428;-71
2022/05/28 07:51:30;;;;;;;7.22;2.15;;;13.50;99.90;;;;;;5032360;28;20062;-68
2022/05/28 07:53:56;;;;;;;8.82;2.47;;;12.80;99.90;;;;;;5027251;28;20061;-70
2022/05/28 07:56:22;;;;;;;9.13;2.03;;;12.60;99.90;;;;;;5032933;28;20052;-71
2022/05/28 07:58:54;;;;;;;8.30;2.42;;;12.30;99.90;;;;;;5041333;28;20050;-70
2022/05/28 08:01:26;;;;;;;10.15;2.63;;;12.10;99.90;;;;;;5035630;28;20149;-72
2022/05/28 08:03:52;;;;;;;7.82;2.20;;;12.10;99.90;;;;;;5047843;28;20052;-71
2022/05/28 08:06:19;;;;;;;8.18;2.50;;;12.10;99.90;;;;;;5043944;28;20186;-68
2022/05/28 08:08:45;;;;;;;8.90;1.83;;;11.60;99.90;;;;;;5047665;28;20034;-70
2022/05/28 08:11:10;;;;;;;9.30;2.03;;;11.20;99.90;;;;;;5037373;28;20128;-68
2022/05/28 08:13:36;;;;;;;6.97;1.88;;;11.20;99.90;;;;;;5045119;28;20046;-67
2022/05/28 08:16:02;;;;;;;8.23;2.33;;;11.30;99.90;;;;;;5041658;28;20061;-69
2022/05/28 08:18:28;;;;;;;9.43;2.25;;;11.40;99.90;;;;;;5044326;28;20049;-72
2022/05/28 08:23:42;;;;;;;7.97;2.20;;;11.40;99.90;;;;;;5044215;28;20034;-71
2022/05/28 08:26:09;;;;;;;9.75;2.08;;;11.50;99.90;;;;;;5043762;28;20200;-71
2022/05/28 08:28:36;;;;;;;5.63;1.93;;;11.80;99.90;;;;;;5040607;28;20064;-68
2022/05/28 08:31:02;;;;;;;7.78;2.17;;;12.30;99.90;;;;;;5038471;28;20462;-70
2022/05/28 08:33:28;;;;;;;7.70;2.25;;;12.60;99.90;;;;;;5033383;28;20137;-67
2022/05/28 08:35:55;;;;;;;8.88;2.65;;;13.00;99.90;;;;;;5036463;28;20468;-71
2022/05/28 08:38:22;;;;;;;10.63;2.77;;;13.60;99.90;;;;;;5038272;28;20145;-70
2022/05/28 08:41:03;;;;;;;11.20;2.90;;;14.10;99.90;;;;;;5035637;28;20051;-69
2022/05/28 08:43:33;;;;;;;5.90;2.33;;;14.10;99.90;;;;;;5042876;28;20037;-69
2022/05/28 08:45:59;;;;;;;8.30;1.98;;;14.20;99.90;;;;;;5049770;28;20044;-71
2022/05/28 08:48:38;;;;;;;9.15;2.35;;;14.50;99.90;;;;;;5045536;28;20041;-70
2022/05/28 08:51:09;;;;;;;9.93;2.85;;;15.10;99.90;;;;;;5047095;28;20045;-70
2022/05/28 08:53:45;;;;;;;7.40;2.33;;;15.90;99.90;;;;;;5044574;28;20099;-69
2022/05/28 08:56:21;;;;;;;9.32;2.17;;;15.90;99.90;;;;;;5048073;28;20045;-70
2022/05/28 08:58:57;;;;;;;9.48;2.50;;;15.70;99.90;;;;;;5040648;28;20068;-68
2022/05/28 09:01:24;;;;;;;12.02;2.70;;;15.40;99.90;;;;;;5051898;28;20137;-70
2022/05/28 09:03:54;;;;;;;8.98;2.65;;;15.20;99.90;;;;;;5055667;28;20105;-68
2022/05/28 09:06:46;;;;;;;14.63;2.22;;;15.30;99.90;;;;;;5038383;28;20045;-68
2022/05/28 09:09:14;;;;;;;11.45;2.13;;;14.90;99.90;;;;;;5057400;28;20056;-67
2022/05/28 09:12:05;;;;;;;11.43;3.20;;;14.60;99.90;;;;;;5056083;28;20057;-68
2022/05/28 09:14:34;;;;;;;10.35;2.30;;;14.50;99.90;;;;;;5047504;28;20040;-70
2022/05/28 09:17:17;;;;;;;10.93;2.30;;;14.40;99.90;;;;;;5056419;28;20068;-70
2022/05/28 09:19:48;;;;;;;10.35;2.58;;;14.40;99.90;;;;;;5056647;28;20101;-70
2022/05/28 09:22:15;;;;;;;12.82;3.30;;;14.80;99.90;;;;;;5051155;28;20428;-68
2022/05/28 09:24:42;;;;;;;12.77;2.70;;;15.40;99.90;;;;;;5056172;28;20069;-68
2022/05/28 09:27:32;;;;;;;13.98;2.85;;;15.70;99.90;;;;;;5047226;28;20493;-69
2022/05/28 09:30:22;;;;;;;11.55;2.60;;;16.20;99.90;;;;;;5044205;28;20121;-68
2022/05/28 09:33:15;;;;;;;9.00;2.55;;;16.20;99.90;;;;;;5035822;28;20050;-67
2022/05/28 09:35:51;;;;;;;11.43;2.40;;;16.10;99.90;;;;;;5047148;28;20038;-67
2022/05/28 09:38:24;;;;;;;12.85;2.60;;;16.00;99.90;;;;;;5059445;28;20045;-69
2022/05/28 09:40:58;;;;;;;7.65;2.20;;;15.50;99.90;;;;;;5047350;28;20060;-67
2022/05/28 09:43:45;;;;;;;9.60;2.60;;;15.60;99.90;;;;;;5045446;28;20088;-67
2022/05/28 09:46:17;;;;;;;8.90;2.17;;;15.50;99.90;;;;;;5041513;28;20057;-70
2022/05/28 09:48:43;;;;;;;7.90;2.67;;;15.80;99.90;;;;;;5044722;28;20048;-67
2022/05/28 09:51:23;;;;;;;12.20;3.13;;;16.20;99.90;;;;;;5044699;28;20049;-67
2022/05/28 09:56:46;;;;;;;10.55;2.83;;;16.00;99.90;;;;;;5044274;28;20049;-67
2022/05/28 09:59:32;;;;;;;9.98;2.35;;;15.80;99.90;;;;;;5047407;28;20054;-67
2022/05/28 10:02:15;;;;;;;10.38;2.35;;;15.60;99.90;;;;;;5044881;28;20034;-70
2022/05/28 10:04:52;;;;;;;15.13;3.15;;;15.30;99.90;;;;;;5045553;28;20151;-70
2022/05/28 10:07:30;;;;;;;9.57;3.03;;;15.30;99.90;;;;;;5049153;28;20073;-68
2022/05/28 10:09:56;;;;;;;13.43;2.97;;;15.80;99.90;;;;;;5048672;28;20046;-68
2022/05/28 10:12:30;;;;;;;8.82;2.30;;;15.50;99.90;;;;;;5048479;28;20045;-67
2022/05/28 10:15:04;;;;;;;11.38;2.28;;;15.60;99.90;;;;;;5045857;28;20052;-68
2022/05/28 10:17:31;;;;;;;13.77;2.88;;;16.20;99.90;;;;;;5043505;28;20045;-68
2022/05/28 10:19:59;;;;;;;13.20;2.75;;;16.80;99.90;;;;;;5041199;28;20388;-67
2022/05/28 10:22:26;;;;;;;8.65;2.63;;;16.80;99.90;;;;;;5042962;28;20373;-67
2022/05/28 10:24:55;;;;;;;8.73;2.40;;;16.80;99.90;;;;;;5047035;28;20056;-68
2022/05/28 10:27:31;;;;;;;10.68;2.65;;;16.70;99.90;;;;;;5051109;28;20056;-68
2022/05/28 10:30:02;;;;;;;7.68;2.17;;;16.70;99.90;;;;;;5048197;28;20037;-71
2022/05/28 10:32:33;;;;;;;9.30;2.30;;;16.90;99.90;;;;;;5049521;28;20065;-68
2022/05/28 10:35:18;;;;;;;8.07;2.40;;;17.20;99.90;;;;;;5051255;28;20053;-69
2022/05/28 10:37:44;;;;;;;6.45;2.10;;;17.00;99.70;;;;;;5051158;28;20033;-71
2022/05/28 10:40:19;;;;;;;7.40;1.67;;;16.70;98.00;;;;;;5036100;28;20048;-70
2022/05/28 10:42:46;;;;;;;6.93;2.00;;;15.90;97.70;;;;;;5034874;28;20042;-68
2022/05/28 10:45:16;;;;;;;7.28;2.10;;;15.80;99.90;;;;;;5051405;28;20093;-68
2022/05/28 10:47:53;;;;;;;7.85;2.00;;;15.90;99.90;;;;;;5057079;28;20048;-68
2022/05/28 10:50:55;;;;;;;7.72;1.55;;;15.50;99.90;;;;;;5055295;28;20042;-68
2022/05/28 10:53:28;;;;;;;5.93;1.98;;;15.50;99.90;;;;;;5048534;28;20060;-68
2022/05/28 10:56:15;;;;;;;10.52;2.40;;;15.30;99.90;;;;;;5055453;28;20037;-69
2022/05/28 10:59:02;;;;;;;9.30;2.03;;;15.90;99.90;;;;;;5052811;28;20022;-69
2022/05/28 11:01:40;;;;;;;10.63;3.03;;;15.50;99.90;;;;;;5053747;28;20046;-68
2022/05/28 11:04:39;;;;;;;10.95;2.40;;;15.90;99.90;;;;;;5056237;28;20038;-68
2022/05/28 11:07:07;;;;;;;9.98;1.90;;;16.20;99.90;;;;;;5055597;28;20042;-68
2022/05/28 11:10:17;;;;;;;8.38;2.30;;;16.60;99.90;;;;;;5057094;28;20064;-70
2022/05/28 11:13:07;;;;;;;8.85;2.30;;;16.50;99.90;;;;;;5057304;28;20082;-70
2022/05/28 11:15:53;;;;;;;7.07;2.13;;;16.60;99.90;;;;;;5057845;28;20076;-68
2022/05/28 11:18:59;;;;;;;8.20;2.72;;;17.00;99.90;;;;;;5054857;28;20041;-68
2022/05/28 11:21:53;;;;;;;7.88;2.20;;;16.70;99.90;;;;;;5045521;28;20060;-70
2022/05/28 11:24:53;;;;;;;7.03;1.90;;;16.50;99.90;;;;;;5053322;28;20049;-67
2022/05/28 11:27:56;;;;;;;10.10;2.83;;;16.10;99.90;;;;;;5049627;28;20375;-68
2022/05/28 11:30:39;;;;;;;8.88;2.10;;;15.80;99.90;;;;;;5050823;28;20053;-68
2022/05/28 11:33:19;;;;;;;9.32;2.20;;;15.10;99.90;;;;;;5050727;28;20125;-68
2022/05/28 11:35:46;;;;;;;11.23;2.67;;;15.30;99.90;;;;;;5051422;28;20044;-70
2022/05/28 11:38:25;;;;;;;12.75;2.90;;;15.00;99.90;;;;;;5049258;28;20056;-68
2022/05/28 11:41:00;;;;;;;8.30;2.25;;;14.90;99.90;;;;;;5049092;28;20049;-69
2022/05/28 11:43:30;;;;;;;10.68;2.38;;;15.10;99.90;;;;;;5030628;28;20076;-67
2022/05/28 11:46:16;;;;;;;6.70;1.92;;;15.00;99.90;;;;;;5046561;28;20132;-68
2022/05/28 11:52:33;;;;;;;9.55;2.30;;;15.70;99.90;;;;;;5037646;28;20064;-74
2022/05/28 11:55:02;;;;;;;9.65;2.50;;;;;;;;;;5049462;28;20057;-68
2022/05/28 11:57:32;;;;;;;12.77;2.92;;;16.60;99.90;;;;;;5048335;28;20072;-68
2022/05/28 11:59:59;;;;;;;12.13;3.13;;;16.40;99.90;;;;;;5052144;28;20037;-68
2022/05/28 12:02:32;;;;;;;8.77;2.60;;;16.20;99.90;;;;;;5052472;28;20056;-67
2022/05/28 12:04:58;;;;;;;9.32;2.50;;;15.60;99.90;;;;;;5053853;28;20045;-67
2022/05/28 12:07:39;;;;;;;8.73;2.60;;;15.20;99.90;;;;;;5045349;28;20046;-67
2022/05/28 12:10:10;;;;;;;11.45;2.70;;;15.10;99.90;;;;;;5033283;28;20423;-68
2022/05/28 12:12:51;;;;;;;10.63;2.70;;;14.90;99.90;;;;;;5039925;28;20049;-67
2022/05/28 12:15:17;;;;;;;10.32;2.55;;;15.20;99.90;;;;;;5042219;28;20049;-67
2022/05/28 12:18:05;;;;;;;8.15;2.45;;;15.40;99.90;;;;;;5040293;28;20076;-67
2022/05/28 12:20:34;;;;;;;8.63;2.10;;;15.40;99.90;;;;;;5041965;28;20120;-67
2022/05/28 12:23:03;;;;;;;8.90;2.90;;;15.60;99.90;;;;;;5041410;28;20045;-68
2022/05/28 12:25:29;;;;;;;9.10;2.70;;;15.40;99.90;;;;;;5038443;28;20487;-67
2022/05/28 12:27:54;;;;;;;8.57;2.53;;;15.40;99.90;;;;;;5039500;28;20065;-67
2022/05/28 12:30:43;;;;;;;9.05;2.47;;;15.30;99.90;;;;;;5019759;28;20402;-67
2022/05/28 12:33:27;;;;;;;11.55;2.47;;;15.50;99.90;;;;;;5034755;28;20115;-69
2022/05/28 12:35:59;;;;;;;8.48;2.17;;;15.80;99.90;;;;;;5014966;28;20077;-67
2022/05/28 12:38:35;;;;;;;10.30;2.50;;;16.10;99.90;;;;;;5036710;28;20069;-67
2022/05/28 12:41:01;;;;;;;9.02;2.03;;;16.50;99.90;;;;;;5040236;28;20038;-67
2022/05/28 12:43:37;;;;;;;11.18;2.45;;;16.60;99.90;;;;;;5040401;28;20052;-68
2022/05/28 12:46:18;;;;;;;8.68;2.17;;;16.90;99.90;;;;;;5035887;28;20065;-67
2022/05/28 12:48:46;;;;;;;12.20;2.55;;;16.90;99.90;;;;;;5036278;28;20120;-67
2022/05/28 12:51:39;;;;;;;;;;;16.80;99.90;;;;;;5037053;28;20056;-67
2022/05/28 12:54:05;;;;;;;9.27;2.10;;;16.80;99.90;;;;;;5015520;28;19921;-68
2022/05/28 12:56:34;;;;;;;7.68;2.00;;;16.30;99.90;;;;;;5041422;28;20034;-68
2022/05/28 12:59:16;;;;;;;9.60;2.53;;;15.80;99.90;;;;;;5040643;28;20068;-68
2022/05/28 13:02:08;;;;;;;7.68;2.55;;;15.60;99.90;;;;;;5042613;28;20124;-69
2022/05/28 13:04:42;;;;;;;7.70;2.00;;;15.40;99.90;;;;;;5028365;28;20042;-68
2022/05/28 13:07:37;;;;;;;9.32;2.17;;;15.60;99.90;;;;;;5040822;28;20064;-68
2022/05/28 13:10:18;;;;;;;6.07;1.88;;;15.60;99.90;;;;;;5042064;28;20052;-69
2022/05/28 13:12:53;;;;;;;5.75;2.00;;;15.30;99.90;;;;;;5040846;28;20119;-69
2022/05/28 13:15:56;;;;;;;9.00;2.30;;;15.30;99.90;;;;;;5039393;28;20465;-67
2022/05/28 13:18:41;;;;;;;7.45;2.08;;;15.60;99.90;;;;;;5032610;28;20056;-67
2022/05/28 13:21:34;;;;;;;9.43;2.63;;;15.80;99.90;;;;;;5040179;28;20037;-67
2022/05/28 13:24:17;;;;;;;8.07;2.42;;;15.90;99.90;;;;;;5034782;28;20184;-67